createdAt,value
2023-01-07T00:01:15.436Z,69.83
2023-01-07T00:03:42.823Z,69.90
2023-01-07T00:06:15.154Z,69.89
2023-01-07T00:08:43.924Z,70.09
2023-01-07T00:11:22.286Z,70.02
2023-01-07T00:13:49.796Z,69.86
2023-01-07T00:16:18.520Z,69.66
2023-01-07T00:18:48.372Z,69.52
2023-01-07T00:21:16.403Z,69.41
2023-01-07T00:23:43.781Z,69.37
2023-01-07T00:26:12.845Z,69.31
2023-01-07T00:28:42.435Z,69.19
2023-01-07T00:31:11.105Z,69.11
2023-01-07T00:33:47.855Z,69.03
2023-01-07T00:36:14.803Z,68.92
2023-01-07T00:38:41.630Z,68.84
2023-01-07T00:41:09.553Z,68.88
2023-01-07T00:43:36.403Z,68.84
2023-01-07T00:46:03.293Z,68.91
2023-01-07T00:48:30.232Z,68.83
2023-01-07T00:50:57.156Z,68.99
2023-01-07T00:53:25.227Z,69.07
2023-01-07T00:55:52.280Z,69.09
2023-01-07T00:58:27.052Z,69.23
2023-01-07T01:00:57.883Z,69.31
2023-01-07T01:03:25.422Z,69.40
2023-01-07T01:05:52.414Z,69.41
2023-01-07T01:08:24.872Z,69.51
2023-01-07T01:10:51.707Z,69.36
2023-01-07T01:13:26.393Z,69.50
2023-01-07T01:15:55.331Z,69.53
2023-01-07T01:18:25.044Z,69.66
2023-01-07T01:20:52.016Z,69.73
2023-01-07T01:23:18.937Z,69.80
2023-01-07T01:25:48.321Z,69.89
2023-01-07T01:28:15.347Z,69.83
2023-01-07T01:30:44.543Z,69.77
2023-01-07T01:33:12.833Z,69.82
2023-01-07T01:35:41.177Z,69.93
2023-01-07T01:38:11.354Z,70.14
2023-01-07T01:40:38.332Z,70.22
2023-01-07T01:43:05.503Z,70.37
2023-01-07T01:45:32.637Z,70.45
2023-01-07T01:48:08.892Z,70.67
2023-01-07T01:50:39.061Z,70.75
2023-01-07T01:53:10.405Z,70.64
2023-01-07T01:56:09.774Z,70.48
2023-01-07T01:58:39.353Z,70.64
2023-01-07T02:01:06.656Z,70.83
2023-01-07T02:03:37.107Z,70.93
2023-01-07T02:06:04.281Z,70.91
2023-01-07T02:08:31.264Z,71.06
2023-01-07T02:11:45.844Z,71.22
2023-01-07T02:14:31.464Z,71.17
2023-01-07T02:17:12.740Z,71.06
2023-01-07T02:20:01.392Z,71.06
2023-01-07T02:22:31.333Z,71.07
2023-01-07T02:25:18.868Z,71.17
2023-01-07T02:28:00.193Z,71.15
2023-01-07T02:30:50.813Z,71.23
2023-01-07T02:33:56.265Z,71.28
2023-01-07T02:36:47.591Z,71.31
2023-01-07T02:39:24.147Z,71.21
2023-01-07T02:41:59.073Z,71.12
2023-01-07T02:44:49.221Z,71.11
2023-01-07T02:47:21.989Z,71.25
2023-01-07T02:49:49.062Z,71.19
2023-01-07T02:52:23.239Z,71.36
2023-01-07T02:55:04.819Z,71.36
2023-01-07T02:57:57.001Z,71.47
2023-01-07T03:00:46.168Z,71.45
2023-01-07T03:03:13.123Z,71.34
2023-01-07T03:05:49.160Z,71.21
2023-01-07T03:08:23.739Z,71.13
2023-01-07T03:11:03.185Z,71.27
2023-01-07T03:13:43.647Z,71.32
2023-01-07T03:16:14.091Z,71.24
2023-01-07T03:18:44.282Z,71.24
2023-01-07T03:21:13.784Z,71.31
2023-01-07T03:23:44.157Z,71.43
2023-01-07T03:26:11.140Z,71.34
2023-01-07T03:28:40.999Z,71.16
2023-01-07T03:31:10.666Z,71.23
2023-01-07T03:33:56.961Z,71.12
2023-01-07T03:36:26.076Z,71.05
2023-01-07T03:38:54.338Z,71.15
2023-01-07T03:41:39.966Z,71.23
2023-01-07T03:44:07.465Z,71.41
2023-01-07T03:46:34.720Z,71.65
2023-01-07T03:49:01.629Z,71.44
2023-01-07T03:51:28.572Z,71.29
2023-01-07T03:53:55.954Z,71.29
2023-01-07T03:56:23.513Z,71.16
2023-01-07T03:58:50.371Z,71.09
2023-01-07T04:01:17.455Z,71.14
2023-01-07T04:03:44.733Z,71.10
2023-01-07T04:06:14.180Z,71.29
2023-01-07T04:08:41.080Z,71.52
2023-01-07T04:11:08.037Z,71.68
2023-01-07T04:13:37.833Z,71.62
2023-01-07T04:16:05.073Z,71.50
2023-01-07T04:18:31.912Z,71.61
2023-01-07T04:22:37.599Z,71.72
2023-01-07T04:25:06.279Z,71.79
2023-01-07T04:27:36.401Z,71.80
2023-01-07T04:30:03.957Z,72.02
2023-01-07T04:32:34.508Z,72.12
2023-01-07T04:35:05.125Z,72.16
2023-01-07T04:37:32.370Z,72.07
2023-01-07T04:40:05.012Z,72.19
2023-01-07T04:42:34.671Z,72.33
2023-01-07T04:45:02.147Z,72.25
2023-01-07T04:47:29.675Z,72.42
2023-01-07T04:49:56.818Z,72.40
2023-01-07T04:52:24.072Z,72.46
2023-01-07T04:54:51.228Z,72.84
2023-01-07T04:57:18.897Z,72.65
2023-01-07T04:59:46.321Z,72.67
2023-01-07T05:02:13.550Z,72.78
2023-01-07T05:04:41.281Z,72.84
2023-01-07T05:07:11.476Z,73.02
2023-01-07T05:09:41.799Z,73.18
2023-01-07T05:12:08.780Z,73.28
2023-01-07T05:14:35.997Z,73.26
2023-01-07T05:17:03.023Z,73.26
2023-01-07T05:19:30.192Z,73.40
2023-01-07T05:21:58.923Z,73.27
2023-01-07T05:24:27.484Z,73.20
2023-01-07T05:26:55.017Z,73.36
2023-01-07T05:29:25.666Z,73.41
2023-01-07T05:31:53.216Z,73.49
2023-01-07T05:34:23.738Z,73.54
2023-01-07T05:36:53.034Z,73.60
2023-01-07T05:39:20.003Z,73.83
2023-01-07T05:41:47.198Z,73.81
2023-01-07T05:44:14.284Z,73.66
2023-01-07T05:46:41.238Z,73.52
2023-01-07T05:49:08.283Z,73.51
2023-01-07T05:51:35.638Z,73.52
2023-01-07T05:54:02.571Z,73.67
2023-01-07T05:56:29.620Z,73.75
2023-01-07T05:58:56.672Z,73.89
2023-01-07T06:01:23.580Z,73.89
2023-01-07T16:40:23.979Z,70.14
2023-01-07T16:42:51.351Z,70.30
2023-01-07T16:45:23.766Z,70.37
2023-01-07T16:48:19.728Z,70.48
2023-01-07T16:50:47.708Z,70.45
2023-01-07T16:53:32.537Z,70.58
2023-01-07T16:56:02.679Z,70.65
2023-01-07T16:58:29.646Z,70.50
2023-01-07T17:00:57.570Z,70.59
2023-01-07T17:03:24.521Z,70.49
2023-01-07T17:06:04.899Z,70.55
2023-01-07T17:08:31.870Z,70.52
2023-01-07T17:11:36.755Z,70.71
2023-01-07T17:14:03.839Z,70.80
2023-01-07T17:16:31.576Z,70.68
2023-01-07T17:19:20.988Z,70.44
2023-01-07T17:21:48.086Z,70.24
2023-01-07T17:24:27.851Z,70.12
2023-01-07T17:26:59.374Z,69.93
2023-01-07T17:29:30.323Z,69.55
2023-01-07T17:31:59.509Z,69.36
2023-01-07T17:34:29.306Z,69.38
2023-01-07T17:36:56.133Z,69.53
2023-01-07T17:39:23.088Z,69.40
2023-01-07T17:42:08.822Z,69.48
2023-01-07T17:44:38.245Z,69.51
2023-01-07T17:47:06.480Z,69.65
2023-01-07T17:49:38.023Z,69.74
2023-01-07T17:52:05.930Z,69.77
2023-01-07T17:54:36.243Z,69.85
2023-01-07T17:57:03.055Z,69.94
2023-01-07T17:59:30.655Z,69.97
2023-01-07T18:01:59.200Z,69.86
2023-01-07T18:04:27.142Z,69.97
2023-01-07T18:06:54.493Z,69.99
2023-01-07T18:09:21.702Z,70.01
2023-01-07T18:12:07.483Z,69.99
2023-01-07T18:14:34.482Z,70.11
2023-01-07T18:17:01.509Z,70.22
2023-01-07T18:19:28.495Z,70.35
2023-01-07T18:21:56.473Z,70.39
2023-01-07T18:24:23.702Z,70.45
2023-01-07T18:26:50.640Z,70.44
2023-01-07T18:29:17.598Z,70.53
2023-01-07T18:31:44.549Z,70.48
2023-01-07T18:34:12.272Z,70.49
2023-01-07T18:36:39.295Z,70.58
2023-01-07T18:39:06.351Z,70.57
2023-01-07T18:41:35.302Z,70.79
2023-01-07T18:44:03.338Z,70.80
2023-01-07T18:46:31.091Z,70.81
2023-01-07T18:48:58.209Z,70.78
2023-01-07T18:51:25.235Z,70.87
2023-01-07T18:53:52.687Z,71.08
2023-01-07T18:56:24.232Z,70.95
2023-01-07T18:59:01.070Z,71.06
2023-01-07T19:01:28.594Z,71.11
2023-01-07T19:03:58.719Z,71.35
2023-01-07T19:06:26.813Z,71.21
2023-01-07T19:08:56.660Z,70.95
2023-01-07T19:11:23.813Z,70.82
2023-01-07T19:13:50.856Z,70.87
2023-01-07T19:16:17.892Z,70.81
2023-01-07T19:18:45.218Z,71.01
2023-01-07T19:21:12.356Z,71.18
2023-01-07T19:23:39.362Z,71.30
2023-01-07T19:26:07.671Z,71.34
2023-01-07T19:28:34.722Z,71.29
2023-01-07T19:31:04.659Z,71.30
2023-01-07T19:33:31.559Z,71.45
2023-01-07T19:36:15.832Z,71.43
2023-01-07T19:38:45.426Z,71.48
2023-01-07T19:41:15.008Z,71.63
2023-01-07T19:43:41.950Z,71.69
2023-01-07T19:46:09.948Z,71.81
2023-01-07T19:48:39.355Z,71.74
2023-01-07T19:51:06.414Z,71.68
2023-01-07T19:53:33.763Z,71.76
2023-01-07T19:56:01.680Z,71.95
2023-01-07T19:58:29.253Z,71.92
2023-01-07T20:00:58.900Z,72.11
2023-01-07T20:03:26.120Z,72.08
2023-01-07T20:05:53.161Z,72.04
2023-01-07T20:08:20.317Z,71.83
2023-01-07T20:10:55.908Z,71.75
2023-01-07T20:13:22.779Z,71.87
2023-01-07T20:15:52.251Z,71.76
2023-01-07T20:18:19.602Z,71.73
2023-01-07T20:20:56.744Z,71.55
2023-01-07T20:23:23.966Z,71.57
2023-01-07T20:25:51.254Z,71.50
2023-01-07T20:28:21.802Z,71.33
2023-01-07T20:30:48.758Z,71.17
2023-01-07T20:33:15.627Z,71.07
2023-01-07T20:35:43.269Z,70.96
2023-01-07T20:38:11.653Z,70.84
2023-01-07T20:40:39.431Z,70.75
2023-01-07T20:43:06.429Z,70.72
2023-01-07T20:45:38.722Z,70.69
2023-01-07T20:48:08.340Z,70.55
2023-01-07T20:50:39.051Z,70.42
2023-01-07T20:53:06.149Z,70.39
2023-01-07T20:55:33.455Z,70.43
2023-01-07T20:58:00.478Z,70.56
2023-01-07T21:00:27.628Z,70.42
2023-01-07T21:02:54.734Z,70.46
2023-01-07T21:05:23.450Z,70.75
2023-01-07T21:07:50.703Z,70.91
2023-01-07T21:10:18.655Z,70.96
2023-01-07T21:12:46.186Z,71.07
2023-01-07T21:15:14.302Z,70.93
2023-01-07T21:17:41.580Z,71.37
2023-01-07T21:20:09.336Z,71.82
2023-01-07T21:22:38.021Z,72.19
2023-01-07T21:25:09.059Z,72.64
2023-01-07T21:27:36.392Z,72.86
2023-01-07T21:30:06.043Z,73.02
2023-01-07T21:32:34.745Z,73.00
2023-01-07T21:35:01.831Z,73.21
2023-01-07T21:37:29.402Z,73.32
2023-01-07T21:39:56.534Z,73.43
2023-01-07T21:42:23.521Z,73.57
2023-01-07T21:44:50.694Z,73.81
2023-01-07T21:47:17.649Z,73.93
2023-01-07T21:49:44.441Z,74.12
2023-01-07T21:52:11.214Z,74.35
2023-01-07T21:54:38.180Z,74.56
2023-01-07T21:57:05.053Z,74.69
2023-01-07T21:59:31.846Z,74.96
2023-01-07T22:01:59.018Z,75.19
2023-01-07T22:04:27.097Z,75.48
2023-01-07T22:06:54.030Z,75.74
2023-01-07T22:09:20.872Z,76.01
2023-01-07T22:11:50.792Z,76.27
2023-01-07T22:14:18.523Z,76.49
2023-01-07T22:16:47.514Z,76.78
2023-01-07T22:19:15.902Z,76.89
2023-01-07T22:21:45.899Z,77.00
2023-01-07T22:24:14.420Z,77.06
2023-01-07T22:26:41.406Z,77.37
2023-01-07T22:29:08.486Z,77.55
2023-01-07T22:31:36.863Z,77.52
2023-01-07T22:34:05.022Z,77.77
2023-01-07T22:36:35.093Z,77.82
2023-01-07T22:39:05.531Z,77.68
2023-01-07T22:41:32.502Z,77.57
2023-01-07T22:44:05.272Z,77.75
2023-01-07T22:46:32.135Z,77.96
2023-01-07T22:48:59.145Z,77.94
2023-01-07T22:51:37.924Z,78.00
2023-01-07T22:54:05.548Z,77.71
2023-01-07T22:56:32.846Z,77.69
2023-01-07T22:59:04.527Z,77.66
2023-01-07T23:01:32.171Z,77.67
2023-01-07T23:03:59.041Z,77.68
2023-01-07T23:06:27.027Z,78.01
2023-01-07T23:08:53.883Z,78.17
2023-01-07T23:11:39.499Z,78.04
2023-01-07T23:14:11.143Z,78.09
2023-01-07T23:16:40.393Z,78.40
2023-01-07T23:19:07.476Z,78.33
2023-01-07T23:21:34.578Z,78.57
2023-01-07T23:24:01.521Z,78.53
2023-01-07T23:26:28.441Z,78.43
2023-01-07T23:28:55.346Z,78.71
2023-01-07T23:31:22.222Z,78.92
2023-01-07T23:33:49.081Z,78.66
2023-01-07T23:36:15.951Z,78.55
2023-01-07T23:38:42.884Z,78.69
2023-01-07T23:41:10.687Z,78.76
2023-01-07T23:43:37.725Z,78.69
2023-01-07T23:46:06.031Z,78.74
2023-01-07T23:48:33.752Z,78.98
2023-01-07T23:51:10.592Z,79.20
2023-01-07T23:53:37.757Z,79.28
2023-01-07T23:56:04.911Z,79.03
2023-01-07T23:58:32.267Z,79.12
